sensor_id;sensor_type;location;lat;lon;timestamp;pressure;altitude;pressure_sealevel;temperature;humidity
740;BME280;354;42.694;23.336;2024-02-04T00:01:18;95685.91;;;7.71;100.00
740;BME280;354;42.694;23.336;2024-02-04T00:03:43;95689.53;;;7.70;100.00
740;BME280;354;42.694;23.336;2024-02-04T00:06:08;95687.63;;;7.63;100.00
740;BME280;354;42.694;23.336;2024-02-04T00:08:34;95687.00;;;7.61;100.00
740;BME280;354;42.694;23.336;2024-02-04T00:10:59;95691.06;;;7.64;100.00
740;BME280;354;42.694;23.336;2024-02-04T00:13:25;95687.63;;;7.63;100.00
740;BME280;354;42.694;23.336;2024-02-04T00:15:50;95687.06;;;7.68;100.00
740;BME280;354;42.694;23.336;2024-02-04T00:18:19;95691.06;;;7.64;100.00
740;BME280;354;42.694;23.336;2024-02-04T00:20:44;95695.19;;;7.73;100.00
740;BME280;354;42.694;23.336;2024-02-04T00:23:10;95687.72;;;7.70;100.00
740;BME280;354;42.694;23.336;2024-02-04T00:25:35;95660.00;;;7.61;100.00
740;BME280;354;42.694;23.336;2024-02-04T00:28:00;95692.66;;;7.80;100.00
740;BME280;354;42.694;23.336;2024-02-04T00:30:26;95680.47;;;7.87;100.00
740;BME280;354;42.694;23.336;2024-02-04T00:32:51;95696.47;;;7.92;100.00
740;BME280;354;42.694;23.336;2024-02-04T00:35:17;95695.72;;;7.98;100.00
740;BME280;354;42.694;23.336;2024-02-04T00:37:42;95687.06;;;7.98;100.00
740;BME280;354;42.694;23.336;2024-02-04T00:40:08;95684.25;;;7.99;100.00
740;BME280;354;42.694;23.336;2024-02-04T00:42:34;95686.75;;;8.07;100.00
740;BME280;354;42.694;23.336;2024-02-04T00:44:59;95681.97;;;8.11;100.00
740;BME280;354;42.694;23.336;2024-02-04T00:47:24;95678.78;;;8.15;100.00
740;BME280;354;42.694;23.336;2024-02-04T00:49:51;95676.25;;;8.22;100.00
740;BME280;354;42.694;23.336;2024-02-04T00:52:16;95674.81;;;8.19;100.00
740;BME280;354;42.694;23.336;2024-02-04T00:54:41;95678.41;;;8.18;100.00
740;BME280;354;42.694;23.336;2024-02-04T00:57:07;95688.09;;;8.18;100.00
740;BME280;354;42.694;23.336;2024-02-04T00:59:32;95651.63;;;8.02;100.00
740;BME280;354;42.694;23.336;2024-02-04T01:01:57;95674.97;;;8.18;100.00
740;BME280;354;42.694;23.336;2024-02-04T01:04:24;95675.91;;;8.10;100.00
740;BME280;354;42.694;23.336;2024-02-04T01:06:49;95664.09;;;8.00;100.00
740;BME280;354;42.694;23.336;2024-02-04T01:09:14;95672.22;;;8.05;100.00
740;BME280;354;42.694;23.336;2024-02-04T01:11:40;95673.03;;;8.05;100.00
740;BME280;354;42.694;23.336;2024-02-04T01:14:05;95679.19;;;7.98;100.00
740;BME280;354;42.694;23.336;2024-02-04T01:16:30;95687.88;;;7.98;100.00
740;BME280;354;42.694;23.336;2024-02-04T01:18:56;95663.16;;;7.86;100.00
740;BME280;354;42.694;23.336;2024-02-04T01:21:21;95687.41;;;7.95;100.00
740;BME280;354;42.694;23.336;2024-02-04T01:23:47;95682.91;;;7.88;100.00
740;BME280;354;42.694;23.336;2024-02-04T01:26:12;95674.31;;;7.80;100.00
740;BME280;354;42.694;23.336;2024-02-04T01:28:37;95684.09;;;7.71;100.00
740;BME280;354;42.694;23.336;2024-02-04T01:31:03;95667.25;;;7.59;100.00
740;BME280;354;42.694;23.336;2024-02-04T01:33:28;95669.94;;;7.65;100.00
740;BME280;354;42.694;23.336;2024-02-04T01:35:54;95667.41;;;7.72;100.00
740;BME280;354;42.694;23.336;2024-02-04T01:38:20;95662.50;;;7.69;100.00
740;BME280;354;42.694;23.336;2024-02-04T01:40:45;95667.75;;;7.69;100.00
740;BME280;354;42.694;23.336;2024-02-04T01:43:11;95662.88;;;7.66;100.00
740;BME280;354;42.694;23.336;2024-02-04T01:45:37;95655.50;;;7.70;100.00
740;BME280;354;42.694;23.336;2024-02-04T01:48:03;95648.00;;;7.66;100.00
740;BME280;354;42.694;23.336;2024-02-04T01:50:29;95650.59;;;7.81;100.00
740;BME280;354;42.694;23.336;2024-02-04T01:52:54;95651.13;;;7.91;100.00
740;BME280;354;42.694;23.336;2024-02-04T01:55:20;95648.53;;;8.13;100.00
740;BME280;354;42.694;23.336;2024-02-04T01:57:48;95643.78;;;8.23;100.00
740;BME280;354;42.694;23.336;2024-02-04T02:00:14;95637.09;;;8.35;100.00
740;BME280;354;42.694;23.336;2024-02-04T02:02:41;95642.03;;;8.45;100.00
740;BME280;354;42.694;23.336;2024-02-04T02:05:07;95649.53;;;8.48;100.00
740;BME280;354;42.694;23.336;2024-02-04T02:07:33;95642.97;;;8.59;100.00
740;BME280;354;42.694;23.336;2024-02-04T02:09:58;95651.34;;;8.69;100.00
740;BME280;354;42.694;23.336;2024-02-04T02:12:27;95654.94;;;8.68;100.00
740;BME280;354;42.694;23.336;2024-02-04T02:15:15;95641.91;;;8.75;100.00
740;BME280;354;42.694;23.336;2024-02-04T02:17:48;95645.53;;;8.74;100.00
740;BME280;354;42.694;23.336;2024-02-04T02:23:25;95647.97;;;8.75;100.00
740;BME280;354;42.694;23.336;2024-02-04T02:25:56;95649.13;;;8.73;100.00
740;BME280;354;42.694;23.336;2024-02-04T02:28:21;95639.28;;;8.75;100.00
740;BME280;354;42.694;23.336;2024-02-04T02:30:47;95640.50;;;8.79;100.00
740;BME280;354;42.694;23.336;2024-02-04T02:33:12;95641.16;;;8.81;100.00
740;BME280;354;42.694;23.336;2024-02-04T02:35:38;95640.34;;;8.80;100.00
740;BME280;354;42.694;23.336;2024-02-04T02:40:45;95641.94;;;8.81;100.00
740;BME280;354;42.694;23.336;2024-02-04T02:43:12;95636.56;;;8.89;100.00
740;BME280;354;42.694;23.336;2024-02-04T02:45:41;95643.00;;;8.87;100.00
740;BME280;354;42.694;23.336;2024-02-04T02:48:07;95633.31;;;8.87;100.00
740;BME280;354;42.694;23.336;2024-02-04T02:50:35;95632.34;;;8.95;100.00
740;BME280;354;42.694;23.336;2024-02-04T02:53:01;95638.44;;;8.95;100.00
740;BME280;354;42.694;23.336;2024-02-04T02:55:26;95627.09;;;8.95;100.00
740;BME280;354;42.694;23.336;2024-02-04T02:57:51;95619.69;;;8.98;100.00
740;BME280;354;42.694;23.336;2024-02-04T03:00:17;95623.16;;;9.06;100.00
740;BME280;354;42.694;23.336;2024-02-04T03:02:43;95639.28;;;9.03;100.00
740;BME280;354;42.694;23.336;2024-02-04T03:05:08;95621.28;;;9.00;100.00
740;BME280;354;42.694;23.336;2024-02-04T03:07:34;95625.94;;;8.97;100.00
740;BME280;354;42.694;23.336;2024-02-04T03:10:00;95645.31;;;8.96;100.00
740;BME280;354;42.694;23.336;2024-02-04T03:12:25;95637.69;;;9.02;100.00
740;BME280;354;42.694;23.336;2024-02-04T03:14:50;95635.84;;;9.02;100.00
740;BME280;354;42.694;23.336;2024-02-04T03:17:16;95618.91;;;9.05;100.00
740;BME280;354;42.694;23.336;2024-02-04T03:19:46;95619.16;;;9.10;100.00
740;BME280;354;42.694;23.336;2024-02-04T03:22:12;95623.78;;;9.08;100.00
740;BME280;354;42.694;23.336;2024-02-04T03:24:37;95621.53;;;9.05;100.00
740;BME280;354;42.694;23.336;2024-02-04T03:27:03;95619.16;;;9.10;100.00
740;BME280;354;42.694;23.336;2024-02-04T03:29:28;95621.94;;;9.02;100.00
740;BME280;354;42.694;23.336;2024-02-04T03:31:55;95615.44;;;8.97;100.00
740;BME280;354;42.694;23.336;2024-02-04T03:34:21;95616.16;;;8.85;100.00
740;BME280;354;42.694;23.336;2024-02-04T03:36:46;95602.03;;;8.86;100.00
740;BME280;354;42.694;23.336;2024-02-04T03:39:12;95599.97;;;8.81;100.00
740;BME280;354;42.694;23.336;2024-02-04T03:41:37;95591.09;;;8.82;100.00
740;BME280;354;42.694;23.336;2024-02-04T03:44:02;95588.13;;;8.85;100.00
740;BME280;354;42.694;23.336;2024-02-04T03:46:28;95572.13;;;8.80;100.00
740;BME280;354;42.694;23.336;2024-02-04T03:48:53;95574.53;;;8.75;100.00
740;BME280;354;42.694;23.336;2024-02-04T03:51:19;95577.28;;;8.67;100.00
740;BME280;354;42.694;23.336;2024-02-04T03:53:45;95574.66;;;8.67;100.00
740;BME280;354;42.694;23.336;2024-02-04T03:56:11;95570.81;;;8.63;100.00
740;BME280;354;42.694;23.336;2024-02-04T03:58:36;95584.09;;;8.61;100.00
740;BME280;354;42.694;23.336;2024-02-04T04:01:02;95591.34;;;8.59;100.00
740;BME280;354;42.694;23.336;2024-02-04T04:03:27;95595.13;;;8.57;100.00
740;BME280;354;42.694;23.336;2024-02-04T04:05:56;95572.66;;;8.41;100.00
740;BME280;354;42.694;23.336;2024-02-04T04:08:21;95607.34;;;8.43;100.00
740;BME280;354;42.694;23.336;2024-02-04T04:10:47;95591.25;;;8.46;100.00
740;BME280;354;42.694;23.336;2024-02-04T04:13:12;95592.22;;;8.45;100.00
740;BME280;354;42.694;23.336;2024-02-04T04:15:38;95586.16;;;8.44;100.00
740;BME280;354;42.694;23.336;2024-02-04T04:18:04;95594.03;;;8.44;100.00
740;BME280;354;42.694;23.336;2024-02-04T04:20:30;95581.72;;;8.45;100.00
740;BME280;354;42.694;23.336;2024-02-04T04:22:55;95573.50;;;8.48;100.00
740;BME280;354;42.694;23.336;2024-02-04T04:25:20;95579.00;;;8.53;100.00
740;BME280;354;42.694;23.336;2024-02-04T04:27:46;95585.84;;;8.54;100.00
740;BME280;354;42.694;23.336;2024-02-04T04:30:11;95583.66;;;8.58;100.00
740;BME280;354;42.694;23.336;2024-02-04T04:32:37;95598.41;;;8.59;100.00
740;BME280;354;42.694;23.336;2024-02-04T04:35:02;95579.00;;;8.53;100.00
740;BME280;354;42.694;23.336;2024-02-04T04:37:28;95591.25;;;8.74;100.00
740;BME280;354;42.694;23.336;2024-02-04T04:39:53;95590.09;;;8.83;100.00
740;BME280;354;42.694;23.336;2024-02-04T04:42:19;95604.75;;;8.99;100.00
740;BME280;354;42.694;23.336;2024-02-04T04:44:44;95580.91;;;8.94;100.00
740;BME280;354;42.694;23.336;2024-02-04T04:47:10;95593.91;;;9.09;100.00
740;BME280;354;42.694;23.336;2024-02-04T04:49:35;95605.06;;;9.17;100.00
740;BME280;354;42.694;23.336;2024-02-04T04:52:00;95602.22;;;9.12;100.00
740;BME280;354;42.694;23.336;2024-02-04T04:54:27;95606.69;;;9.18;100.00
740;BME280;354;42.694;23.336;2024-02-04T04:56:53;95603.84;;;9.13;100.00
740;BME280;354;42.694;23.336;2024-02-04T04:59:18;95602.63;;;9.16;100.00
740;BME280;354;42.694;23.336;2024-02-04T05:01:47;95610.75;;;9.21;100.00
740;BME280;354;42.694;23.336;2024-02-04T05:04:13;95597.19;;;9.17;100.00
740;BME280;354;42.694;23.336;2024-02-04T05:06:40;95599.53;;;9.06;100.00
740;BME280;354;42.694;23.336;2024-02-04T05:09:05;95599.78;;;9.11;100.00
740;BME280;354;42.694;23.336;2024-02-04T05:11:31;95599.94;;;9.03;100.00
740;BME280;354;42.694;23.336;2024-02-04T05:13:56;95593.69;;;9.04;100.00
740;BME280;354;42.694;23.336;2024-02-04T05:16:21;95596.66;;;9.01;100.00
740;BME280;354;42.694;23.336;2024-02-04T05:18:47;95603.09;;;8.91;100.00
740;BME280;354;42.694;23.336;2024-02-04T05:21:12;95608.50;;;8.90;100.00
740;BME280;354;42.694;23.336;2024-02-04T05:23:37;95610.47;;;8.81;100.00
740;BME280;354;42.694;23.336;2024-02-04T05:26:04;95604.03;;;8.84;100.00
740;BME280;354;42.694;23.336;2024-02-04T05:28:30;95601.00;;;8.80;100.00
740;BME280;354;42.694;23.336;2024-02-04T05:30:55;95599.97;;;8.81;100.00
740;BME280;354;42.694;23.336;2024-02-04T05:33:21;95604.09;;;8.90;100.00
740;BME280;354;42.694;23.336;2024-02-04T05:35:46;95605.75;;;8.98;100.00
740;BME280;354;42.694;23.336;2024-02-04T05:38:11;95593.59;;;8.90;100.00
740;BME280;354;42.694;23.336;2024-02-04T05:40:37;95606.84;;;9.10;100.00
740;BME280;354;42.694;23.336;2024-02-04T05:43:02;95608.66;;;9.10;100.00
740;BME280;354;42.694;23.336;2024-02-04T05:45:33;95604.22;;;9.10;100.00
740;BME280;354;42.694;23.336;2024-02-04T05:47:58;95602.88;;;9.21;100.00
740;BME280;354;42.694;23.336;2024-02-04T05:50:24;95625.69;;;9.20;100.00
740;BME280;354;42.694;23.336;2024-02-04T05:52:49;95609.78;;;9.29;100.00
740;BME280;354;42.694;23.336;2024-02-04T05:55:15;95622.00;;;9.15;100.00
740;BME280;354;42.694;23.336;2024-02-04T05:57:40;95617.56;;;9.15;100.00
740;BME280;354;42.694;23.336;2024-02-04T06:00:07;95623.25;;;9.19;100.00
740;BME280;354;42.694;23.336;2024-02-04T06:02:33;95631.13;;;9.19;100.00
740;BME280;354;42.694;23.336;2024-02-04T06:04:58;95618.72;;;9.06;100.00
740;BME280;354;42.694;23.336;2024-02-04T06:07:24;95628.03;;;9.09;100.00
740;BME280;354;42.694;23.336;2024-02-04T06:09:49;95640.63;;;9.20;100.00
740;BME280;354;42.694;23.336;2024-02-04T06:12:14;95622.06;;;8.93;100.00
740;BME280;354;42.694;23.336;2024-02-04T06:14:40;95647.38;;;9.01;100.00
740;BME280;354;42.694;23.336;2024-02-04T06:17:06;95637.72;;;9.08;100.00
740;BME280;354;42.694;23.336;2024-02-04T06:19:34;95644.56;;;9.09;100.00
740;BME280;354;42.694;23.336;2024-02-04T06:22:00;95641.75;;;9.11;100.00
740;BME280;354;42.694;23.336;2024-02-04T06:24:25;95658.50;;;9.10;100.00
740;BME280;354;42.694;23.336;2024-02-04T06:26:51;95656.03;;;9.02;100.00
740;BME280;354;42.694;23.336;2024-02-04T06:29:16;95656.88;;;9.09;100.00
740;BME280;354;42.694;23.336;2024-02-04T06:31:44;95659.56;;;9.15;100.00
740;BME280;354;42.694;23.336;2024-02-04T06:34:10;95668.03;;;9.17;100.00
740;BME280;354;42.694;23.336;2024-02-04T06:36:36;95672.06;;;9.13;100.00
740;BME280;354;42.694;23.336;2024-02-04T06:39:01;95668.13;;;9.24;100.00
740;BME280;354;42.694;23.336;2024-02-04T06:41:27;95670.25;;;9.42;100.00
740;BME280;354;42.694;23.336;2024-02-04T06:43:52;95676.09;;;9.44;100.00
740;BME280;354;42.694;23.336;2024-02-04T06:46:27;95675.56;;;9.55;100.00
740;BME280;354;42.694;23.336;2024-02-04T06:48:53;95669.97;;;9.65;100.00
740;BME280;354;42.694;23.336;2024-02-04T06:51:19;95668.53;;;9.62;100.00
740;BME280;354;42.694;23.336;2024-02-04T06:53:45;95665.72;;;9.64;100.00
740;BME280;354;42.694;23.336;2024-02-04T06:56:10;95669.03;;;9.79;100.00
740;BME280;354;42.694;23.336;2024-02-04T06:58:39;95663.81;;;9.92;100.00
740;BME280;354;42.694;23.336;2024-02-04T07:01:05;95664.03;;;9.91;100.00
740;BME280;354;42.694;23.336;2024-02-04T07:03:31;95670.75;;;10.00;100.00
740;BME280;354;42.694;23.336;2024-02-04T07:05:57;95646.06;;;9.94;100.00
740;BME280;354;42.694;23.336;2024-02-04T07:08:23;95664.88;;;10.04;100.00
740;BME280;354;42.694;23.336;2024-02-04T07:10:49;95673.56;;;9.98;100.00
740;BME280;354;42.694;23.336;2024-02-04T07:13:14;95669.06;;;9.92;100.00
740;BME280;354;42.694;23.336;2024-02-04T07:15:40;95671.56;;;10.00;100.00
740;BME280;354;42.694;23.336;2024-02-04T07:18:05;95669.28;;;9.91;100.00
740;BME280;354;42.694;23.336;2024-02-04T07:20:30;95659.47;;;9.71;100.00
740;BME280;354;42.694;23.336;2024-02-04T07:22:56;95661.97;;;9.86;100.00
740;BME280;354;42.694;23.336;2024-02-04T07:25:21;95669.97;;;10.13;100.00
740;BME280;354;42.694;23.336;2024-02-04T07:27:48;95676.16;;;10.40;100.00
740;BME280;354;42.694;23.336;2024-02-04T07:30:13;95661.63;;;10.50;100.00
740;BME280;354;42.694;23.336;2024-02-04T07:32:39;95674.41;;;10.73;100.00
740;BME280;354;42.694;23.336;2024-02-04T07:35:05;95662.47;;;10.84;100.00
740;BME280;354;42.694;23.336;2024-02-04T07:37:31;95685.13;;;10.98;100.00
740;BME280;354;42.694;23.336;2024-02-04T07:39:56;95659.63;;;11.05;100.00
740;BME280;354;42.694;23.336;2024-02-04T07:42:22;95674.41;;;11.26;100.00
740;BME280;354;42.694;23.336;2024-02-04T07:44:47;95667.53;;;10.79;100.00
740;BME280;354;42.694;23.336;2024-02-04T07:47:13;95661.84;;;10.75;100.00
740;BME280;354;42.694;23.336;2024-02-04T07:49:38;95671.97;;;10.85;100.00
740;BME280;354;42.694;23.336;2024-02-04T07:52:04;95691.22;;;11.05;100.00
740;BME280;354;42.694;23.336;2024-02-04T07:54:29;95671.56;;;10.81;100.00
740;BME280;354;42.694;23.336;2024-02-04T07:56:55;95678.22;;;10.71;100.00
740;BME280;354;42.694;23.336;2024-02-04T07:59:20;95682.88;;;10.82;100.00
740;BME280;354;42.694;23.336;2024-02-04T08:01:46;95682.09;;;11.01;100.00
740;BME280;354;42.694;23.336;2024-02-04T08:04:12;95675.19;;;11.40;100.00
740;BME280;354;42.694;23.336;2024-02-04T08:06:37;95680.63;;;11.58;100.00
740;BME280;354;42.694;23.336;2024-02-04T08:09:03;95679.63;;;11.66;100.00
740;BME280;354;42.694;23.336;2024-02-04T08:11:29;95682.84;;;11.61;100.00
740;BME280;354;42.694;23.336;2024-02-04T08:13:54;95674.16;;;11.61;100.00
740;BME280;354;42.694;23.336;2024-02-04T08:16:20;95680.63;;;11.72;100.00
740;BME280;354;42.694;23.336;2024-02-04T08:18:46;95680.75;;;12.03;100.00
740;BME280;354;42.694;23.336;2024-02-04T08:21:11;95678.00;;;11.52;100.00
740;BME280;354;42.694;23.336;2024-02-04T08:23:37;95685.31;;;11.50;100.00
740;BME280;354;42.694;23.336;2024-02-04T08:26:04;95669.94;;;11.20;100.00
740;BME280;354;42.694;23.336;2024-02-04T08:28:30;95678.53;;;11.80;100.00
740;BME280;354;42.694;23.336;2024-02-04T08:30:55;95641.56;;;11.35;100.00
740;BME280;354;42.694;23.336;2024-02-04T08:33:21;95674.72;;;11.70;100.00
740;BME280;354;42.694;23.336;2024-02-04T08:35:47;95675.16;;;11.53;100.00
740;BME280;354;42.694;23.336;2024-02-04T08:38:13;95682.66;;;11.56;100.00
740;BME280;354;42.694;23.336;2024-02-04T08:40:38;95666.91;;;11.30;100.00
740;BME280;354;42.694;23.336;2024-02-04T08:43:03;95677.19;;;11.51;100.00
740;BME280;354;42.694;23.336;2024-02-04T08:45:29;95674.97;;;11.42;100.00
740;BME280;354;42.694;23.336;2024-02-04T08:47:54;95675.97;;;11.60;100.00
740;BME280;354;42.694;23.336;2024-02-04T08:50:19;95679.19;;;11.63;100.00
740;BME280;354;42.694;23.336;2024-02-04T08:52:45;95676.94;;;11.86;100.00
740;BME280;354;42.694;23.336;2024-02-04T08:55:10;95679.28;;;12.07;100.00
740;BME280;354;42.694;23.336;2024-02-04T08:57:36;95670.72;;;12.19;100.00
740;BME280;354;42.694;23.336;2024-02-04T09:00:01;95675.00;;;12.13;100.00
740;BME280;354;42.694;23.336;2024-02-04T09:02:27;95665.38;;;11.74;100.00
740;BME280;354;42.694;23.336;2024-02-04T09:04:52;95663.19;;;11.64;100.00
740;BME280;354;42.694;23.336;2024-02-04T09:07:19;95660.56;;;11.57;100.00
740;BME280;354;42.694;23.336;2024-02-04T09:09:44;95667.25;;;11.67;100.00
740;BME280;354;42.694;23.336;2024-02-04T09:12:10;95673.31;;;11.87;100.00
740;BME280;354;42.694;23.336;2024-02-04T09:14:35;95673.91;;;11.89;100.00
740;BME280;354;42.694;23.336;2024-02-04T09:17:04;95666.25;;;11.54;100.00
740;BME280;354;42.694;23.336;2024-02-04T09:19:30;95667.25;;;11.67;100.00
740;BME280;354;42.694;23.336;2024-02-04T09:21:56;95671.13;;;11.51;100.00
740;BME280;354;42.694;23.336;2024-02-04T09:24:22;95675.56;;;11.70;100.00
740;BME280;354;42.694;23.336;2024-02-04T09:26:47;95693.16;;;11.70;100.00
740;BME280;354;42.694;23.336;2024-02-04T09:29:13;95696.63;;;11.64;100.00
740;BME280;354;42.694;23.336;2024-02-04T09:31:38;95701.25;;;11.95;100.00
740;BME280;354;42.694;23.336;2024-02-04T09:34:03;95688.75;;;11.57;100.00
740;BME280;354;42.694;23.336;2024-02-04T09:36:29;95687.97;;;11.23;100.00
740;BME280;354;42.694;23.336;2024-02-04T09:38:55;95690.19;;;11.46;100.00
740;BME280;354;42.694;23.336;2024-02-04T09:41:21;95679.44;;;11.41;100.00
740;BME280;354;42.694;23.336;2024-02-04T09:43:49;95684.94;;;11.26;100.00
740;BME280;354;42.694;23.336;2024-02-04T09:46:16;95687.34;;;11.54;100.00
740;BME280;354;42.694;23.336;2024-02-04T09:48:43;95690.72;;;11.75;100.00
740;BME280;354;42.694;23.336;2024-02-04T09:51:09;95689.19;;;12.25;100.00
740;BME280;354;42.694;23.336;2024-02-04T09:53:35;95681.47;;;12.24;100.00
740;BME280;354;42.694;23.336;2024-02-04T09:56:02;95670.06;;;12.30;100.00
740;BME280;354;42.694;23.336;2024-02-04T09:58:29;95683.72;;;12.13;100.00
740;BME280;354;42.694;23.336;2024-02-04T10:00:54;95674.81;;;12.15;100.00
740;BME280;354;42.694;23.336;2024-02-04T10:03:20;95671.72;;;12.31;100.00
740;BME280;354;42.694;23.336;2024-02-04T10:05:46;95667.41;;;12.36;100.00
740;BME280;354;42.694;23.336;2024-02-04T10:08:12;95671.75;;;12.18;100.00
740;BME280;354;42.694;23.336;2024-02-04T10:10:38;95666.72;;;12.09;100.00
740;BME280;354;42.694;23.336;2024-02-04T10:13:08;95675.06;;;12.45;100.00
740;BME280;354;42.694;23.336;2024-02-04T10:15:33;95675.56;;;12.66;100.00
740;BME280;354;42.694;23.336;2024-02-04T10:17:59;95690.91;;;13.08;100.00
740;BME280;354;42.694;23.336;2024-02-04T10:20:27;95684.22;;;12.80;100.00
740;BME280;354;42.694;23.336;2024-02-04T10:22:52;95683.00;;;13.08;100.00
740;BME280;354;42.694;23.336;2024-02-04T10:25:20;95700.00;;;13.12;100.00
740;BME280;354;42.694;23.336;2024-02-04T10:27:46;95688.97;;;12.97;100.00
740;BME280;354;42.694;23.336;2024-02-04T10:30:12;95690.03;;;12.89;100.00
740;BME280;354;42.694;23.336;2024-02-04T10:32:39;95691.97;;;13.00;100.00
740;BME280;354;42.694;23.336;2024-02-04T10:35:05;95682.13;;;12.51;100.00
740;BME280;354;42.694;23.336;2024-02-04T10:37:30;95668.84;;;12.32;100.00
740;BME280;354;42.694;23.336;2024-02-04T10:39:56;95686.53;;;12.25;100.00
740;BME280;354;42.694;23.336;2024-02-04T10:42:26;95685.41;;;12.46;100.00
740;BME280;354;42.694;23.336;2024-02-04T10:44:53;95682.44;;;12.29;100.00
740;BME280;354;42.694;23.336;2024-02-04T10:47:22;95684.34;;;12.16;100.00
740;BME280;354;42.694;23.336;2024-02-04T10:49:52;95676.63;;;12.59;100.00
740;BME280;354;42.694;23.336;2024-02-04T10:52:20;95696.13;;;12.51;100.00
740;BME280;354;42.694;23.336;2024-02-04T10:54:48;95695.97;;;12.46;100.00
740;BME280;354;42.694;23.336;2024-02-04T10:57:20;95690.63;;;12.59;100.00
740;BME280;354;42.694;23.336;2024-02-04T10:59:47;95674.75;;;12.66;100.00
740;BME280;354;42.694;23.336;2024-02-04T11:02:15;95682.91;;;12.89;100.00
740;BME280;354;42.694;23.336;2024-02-04T11:04:42;95687.84;;;12.79;100.00
740;BME280;354;42.694;23.336;2024-02-04T11:07:09;95669.84;;;12.38;100.00
740;BME280;354;42.694;23.336;2024-02-04T11:09:36;95683.88;;;12.32;100.00
740;BME280;354;42.694;23.336;2024-02-04T11:12:04;95690.53;;;12.34;100.00
740;BME280;354;42.694;23.336;2024-02-04T11:14:32;95679.63;;;12.31;100.00
740;BME280;354;42.694;23.336;2024-02-04T11:27:49;95651.81;;;12.66;100.00
740;BME280;354;42.694;23.336;2024-02-04T11:30:15;95664.09;;;12.79;100.00
740;BME280;354;42.694;23.336;2024-02-04T11:32:41;95649.31;;;13.03;100.00
740;BME280;354;42.694;23.336;2024-02-04T11:35:07;95653.34;;;13.06;100.00
740;BME280;354;42.694;23.336;2024-02-04T11:37:32;95650.66;;;13.56;100.00
740;BME280;354;42.694;23.336;2024-02-04T11:39:58;95639.41;;;13.17;100.00
740;BME280;354;42.694;23.336;2024-02-04T11:42:24;95650.44;;;13.39;100.00
740;BME280;354;42.694;23.336;2024-02-04T11:44:50;95649.03;;;13.11;100.00
740;BME280;354;42.694;23.336;2024-02-04T11:47:28;95642.66;;;12.94;100.00
740;BME280;354;42.694;23.336;2024-02-04T11:50:02;95621.56;;;12.62;100.00
740;BME280;354;42.694;23.336;2024-02-04T11:52:28;95613.75;;;12.49;100.00
740;BME280;354;42.694;23.336;2024-02-04T11:54:54;95608.53;;;12.43;100.00
740;BME280;354;42.694;23.336;2024-02-04T11:57:20;95605.25;;;12.47;100.00
740;BME280;354;42.694;23.336;2024-02-04T11:59:47;95589.97;;;12.56;100.00
740;BME280;354;42.694;23.336;2024-02-04T12:02:13;95586.34;;;12.50;100.00
740;BME280;354;42.694;23.336;2024-02-04T12:04:41;95589.00;;;12.75;100.00
740;BME280;354;42.694;23.336;2024-02-04T12:07:07;95597.03;;;12.87;100.00
740;BME280;354;42.694;23.336;2024-02-04T12:09:34;95593.31;;;12.95;100.00
740;BME280;354;42.694;23.336;2024-02-04T12:12:00;95603.84;;;13.19;100.00
740;BME280;354;42.694;23.336;2024-02-04T12:14:26;95603.19;;;13.49;100.00
740;BME280;354;42.694;23.336;2024-02-04T12:16:51;95601.25;;;13.13;100.00
740;BME280;354;42.694;23.336;2024-02-04T12:19:17;95604.78;;;13.32;100.00
740;BME280;354;42.694;23.336;2024-02-04T12:21:43;95604.78;;;13.32;100.00
740;BME280;354;42.694;23.336;2024-02-04T12:24:08;95596.31;;;13.23;100.00
740;BME280;354;42.694;23.336;2024-02-04T12:26:34;95582.19;;;13.54;100.00
740;BME280;354;42.694;23.336;2024-02-04T12:29:00;95589.94;;;13.67;100.00
740;BME280;354;42.694;23.336;2024-02-04T12:31:26;95580.47;;;13.96;100.00
740;BME280;354;42.694;23.336;2024-02-04T12:34:00;95586.38;;;13.80;100.00
740;BME280;354;42.694;23.336;2024-02-04T12:36:32;95572.63;;;13.71;100.00
740;BME280;354;42.694;23.336;2024-02-04T12:39:00;95583.16;;;13.90;100.00
740;BME280;354;42.694;23.336;2024-02-04T12:41:26;95572.94;;;13.63;100.00
740;BME280;354;42.694;23.336;2024-02-04T12:43:54;95580.34;;;13.11;100.00
740;BME280;354;42.694;23.336;2024-02-04T12:46:20;95580.00;;;13.08;100.00
740;BME280;354;42.694;23.336;2024-02-04T12:48:57;95568.91;;;13.17;100.00
740;BME280;354;42.694;23.336;2024-02-04T12:51:30;95580.84;;;13.45;100.00
740;BME280;354;42.694;23.336;2024-02-04T12:56:49;95578.47;;;13.18;100.00
740;BME280;354;42.694;23.336;2024-02-04T12:59:25;95570.09;;;13.03;100.00
740;BME280;354;42.694;23.336;2024-02-04T13:02:02;95580.75;;;12.90;100.00
740;BME280;354;42.694;23.336;2024-02-04T13:04:40;95578.72;;;12.92;100.00
740;BME280;354;42.694;23.336;2024-02-04T13:07:11;95573.84;;;12.89;100.00
740;BME280;354;42.694;23.336;2024-02-04T13:09:39;95582.31;;;12.98;100.00
740;BME280;354;42.694;23.336;2024-02-04T13:12:09;95579.97;;;13.33;100.00
740;BME280;354;42.694;23.336;2024-02-04T13:14:38;95589.53;;;13.52;100.00
740;BME280;354;42.694;23.336;2024-02-04T13:17:04;95586.34;;;13.25;100.00
740;BME280;354;42.694;23.336;2024-02-04T13:19:34;95588.34;;;13.30;100.00
740;BME280;354;42.694;23.336;2024-02-04T13:22:00;95587.63;;;12.91;100.00
740;BME280;354;42.694;23.336;2024-02-04T13:24:25;95608.91;;;12.96;100.00
740;BME280;354;42.694;23.336;2024-02-04T13:26:51;95607.66;;;12.80;100.00
740;BME280;354;42.694;23.336;2024-02-04T13:29:16;95599.19;;;12.97;100.00
740;BME280;354;42.694;23.336;2024-02-04T13:31:42;95622.56;;;12.93;100.00
740;BME280;354;42.694;23.336;2024-02-04T13:34:07;95606.03;;;13.04;100.00
740;BME280;354;42.694;23.336;2024-02-04T13:36:32;95601.31;;;13.06;100.00
740;BME280;354;42.694;23.336;2024-02-04T13:38:58;95599.38;;;12.95;100.00
740;BME280;354;42.694;23.336;2024-02-04T13:41:23;95608.66;;;13.04;100.00